createdAt,value
2022-09-14T00:02:13.917Z,5.78
2022-09-14T00:05:01.264Z,6.07
2022-09-14T00:07:48.911Z,5.00
2022-09-14T00:10:41.204Z,6.43
2022-09-14T00:13:28.315Z,5.70
2022-09-14T00:16:16.684Z,5.88
2022-09-14T00:19:06.287Z,5.00
2022-09-14T00:21:54.236Z,5.25
2022-09-14T00:24:44.112Z,5.03
2022-09-14T00:27:34.837Z,4.97
2022-09-14T00:30:25.326Z,5.22
2022-09-14T00:33:13.127Z,5.20
2022-09-14T00:36:06.785Z,5.00
2022-09-14T00:38:57.025Z,4.75
2022-09-14T00:41:47.555Z,4.80
2022-09-14T00:44:55.714Z,4.57
2022-09-14T00:47:46.947Z,5.07
2022-09-14T00:50:36.921Z,4.95
2022-09-14T00:53:26.100Z,4.40
2022-09-14T00:56:16.797Z,5.15
2022-09-14T00:59:09.500Z,4.50
2022-09-14T01:01:58.809Z,4.28
2022-09-14T01:04:49.102Z,3.97
2022-09-14T01:07:47.433Z,4.10
2022-09-14T01:10:46.491Z,4.13
2022-09-14T01:13:43.568Z,4.05
2022-09-14T01:16:39.793Z,4.25
2022-09-14T01:19:36.373Z,4.18
2022-09-14T01:22:33.659Z,3.90
2022-09-14T01:25:30.440Z,4.82
2022-09-14T01:28:24.429Z,4.13
2022-09-14T01:31:18.599Z,4.00
2022-09-14T01:34:10.937Z,4.28
2022-09-14T01:37:03.800Z,4.60
2022-09-14T01:39:52.991Z,4.60
2022-09-14T01:42:42.319Z,4.53
2022-09-14T01:45:31.486Z,4.30
2022-09-14T01:48:21.223Z,4.50
2022-09-14T01:51:11.932Z,4.50
2022-09-14T01:54:04.671Z,4.60
2022-09-14T01:57:10.445Z,4.30
2022-09-14T02:00:01.155Z,4.40
2022-09-14T02:02:59.303Z,5.28
2022-09-14T02:06:04.709Z,4.65
2022-09-14T02:08:58.015Z,4.43
2022-09-14T02:12:05.909Z,4.65
2022-09-14T02:15:29.645Z,3.97
2022-09-14T02:18:45.997Z,4.70
2022-09-14T02:22:10.510Z,4.63
2022-09-14T02:25:17.032Z,4.03
2022-09-14T02:28:41.570Z,4.18
2022-09-14T02:31:50.647Z,4.03
2022-09-14T02:35:22.728Z,4.25
2022-09-14T02:38:26.114Z,4.88
2022-09-14T02:41:34.803Z,3.72
2022-09-14T02:44:33.823Z,4.10
2022-09-14T02:47:25.727Z,4.10
2022-09-14T02:50:18.836Z,4.15
2022-09-14T02:53:18.585Z,4.47
2022-09-14T02:56:10.919Z,4.60
2022-09-14T02:59:00.346Z,4.65
2022-09-14T03:01:47.813Z,4.72
2022-09-14T03:04:35.600Z,4.40
2022-09-14T03:07:23.231Z,4.65
2022-09-14T03:10:12.531Z,4.75
2022-09-14T03:13:02.454Z,4.60
2022-09-14T03:15:50.383Z,4.78
2022-09-14T03:18:38.536Z,5.22
2022-09-14T03:21:26.155Z,5.30
2022-09-14T03:24:14.151Z,5.55
2022-09-14T03:27:04.259Z,5.22
2022-09-14T03:29:51.584Z,5.13
2022-09-14T03:32:39.930Z,5.47
2022-09-14T03:35:27.755Z,5.80
2022-09-14T03:38:15.579Z,5.43
2022-09-14T03:41:03.538Z,5.28
2022-09-14T03:43:52.979Z,5.85
2022-09-14T03:46:40.757Z,5.90
2022-09-14T03:49:28.611Z,6.18
2022-09-14T03:52:16.238Z,5.90
2022-09-14T03:55:03.187Z,5.90
2022-09-14T03:57:51.247Z,6.32
2022-09-14T04:00:41.976Z,5.93
2022-09-14T04:03:29.484Z,6.97
2022-09-14T04:06:18.210Z,6.35
2022-09-14T04:09:06.043Z,6.80
2022-09-14T04:11:56.467Z,7.28
2022-09-14T04:14:44.135Z,6.78
2022-09-14T04:17:34.845Z,7.63
2022-09-14T04:20:22.571Z,7.22
2022-09-14T04:23:12.510Z,7.50
2022-09-14T04:26:28.205Z,7.88
2022-09-14T04:29:27.556Z,7.68
2022-09-14T04:33:10.514Z,7.32
2022-09-14T04:39:25.654Z,7.40
2022-09-14T04:42:12.624Z,8.57
2022-09-14T04:44:59.776Z,7.22
2022-09-14T04:47:46.977Z,7.50
2022-09-14T04:50:33.866Z,7.75
2022-09-14T04:53:22.632Z,8.30
2022-09-14T04:56:10.433Z,8.50
2022-09-14T04:58:59.924Z,8.18
2022-09-14T05:01:48.978Z,8.05
2022-09-14T05:04:36.590Z,8.00
2022-09-14T05:07:23.552Z,8.23
2022-09-14T05:10:11.974Z,8.82
2022-09-14T05:12:59.266Z,7.38
2022-09-14T05:15:47.037Z,7.57
2022-09-14T05:18:34.109Z,7.75
2022-09-14T05:21:22.326Z,7.68
2022-09-14T05:24:14.767Z,7.95
2022-09-14T05:27:03.802Z,7.90
2022-09-14T05:29:50.982Z,7.22
2022-09-14T05:32:38.617Z,7.68
2022-09-14T05:35:43.274Z,7.65
2022-09-14T05:38:41.740Z,7.63
2022-09-14T05:42:03.818Z,8.13
2022-09-14T05:44:57.255Z,8.23
2022-09-14T05:47:47.620Z,7.82
2022-09-14T05:50:35.259Z,7.93
2022-09-14T05:53:22.540Z,7.45
2022-09-14T05:56:10.948Z,7.13
2022-09-14T05:58:58.317Z,6.65
2022-09-14T06:02:01.843Z,6.45
2022-09-14T06:08:31.745Z,7.80
2022-09-14T06:11:47.463Z,6.53
2022-09-14T06:14:51.201Z,6.78
2022-09-14T06:17:53.467Z,7.07
2022-09-14T06:20:41.121Z,7.65
2022-09-14T06:24:00.755Z,7.75
2022-09-14T06:30:46.984Z,7.60
2022-09-14T06:37:05.582Z,7.60
2022-09-14T06:40:10.218Z,6.93
2022-09-14T06:43:14.006Z,8.35
2022-09-14T06:46:02.205Z,7.97
2022-09-14T06:49:31.446Z,7.72
2022-09-14T06:56:03.855Z,7.72
2022-09-14T06:58:55.260Z,7.60
2022-09-14T07:01:59.082Z,7.88
2022-09-14T07:08:34.176Z,7.68
2022-09-14T07:11:30.315Z,7.70
2022-09-14T07:14:32.363Z,7.13
2022-09-14T07:17:34.112Z,7.28
2022-09-14T07:20:23.398Z,7.00
2022-09-14T07:23:14.020Z,7.53
2022-09-14T07:26:04.448Z,7.32
2022-09-14T07:28:53.279Z,7.30
2022-09-14T07:31:42.333Z,7.75
2022-09-14T07:34:30.771Z,7.35
2022-09-14T07:37:19.883Z,7.90
2022-09-14T07:40:07.757Z,7.90
2022-09-14T07:42:57.716Z,6.97
2022-09-14T07:45:45.549Z,7.20
2022-09-14T07:48:33.411Z,6.72
2022-09-14T07:51:21.141Z,6.45
2022-09-14T07:54:13.033Z,6.72
2022-09-14T07:57:07.816Z,6.90
2022-09-14T07:59:55.671Z,6.30
2022-09-14T08:02:43.579Z,6.70
2022-09-14T08:05:31.084Z,6.30
2022-09-14T08:08:18.771Z,6.70
2022-09-14T08:11:11.606Z,6.53
2022-09-14T08:14:02.084Z,6.78
2022-09-14T08:16:52.118Z,6.10
2022-09-14T08:19:41.571Z,6.03
2022-09-14T08:22:29.524Z,6.28
2022-09-14T08:25:18.391Z,5.90
2022-09-14T08:28:07.670Z,5.55
2022-09-14T08:30:54.944Z,5.68
2022-09-14T08:33:44.160Z,5.75
2022-09-14T08:36:32.977Z,5.88
2022-09-14T08:39:21.175Z,5.85
2022-09-14T08:42:13.051Z,6.03
2022-09-14T08:45:09.692Z,5.28
2022-09-14T08:48:01.835Z,5.88
2022-09-14T08:50:54.194Z,5.70
2022-09-14T08:53:42.452Z,5.47
2022-09-14T08:56:34.010Z,4.85
2022-09-14T08:59:28.291Z,5.25
2022-09-14T09:02:30.271Z,4.90
2022-09-14T09:05:25.276Z,5.30
2022-09-14T09:08:18.484Z,4.65
2022-09-14T09:11:09.182Z,5.00
2022-09-14T09:13:57.224Z,4.55
2022-09-14T09:16:46.190Z,4.25
2022-09-14T09:19:37.585Z,4.45
2022-09-14T09:22:35.491Z,4.30
2022-09-14T09:25:25.462Z,3.92
2022-09-14T09:28:14.025Z,3.75
2022-09-14T09:31:19.487Z,3.67
2022-09-14T09:37:40.562Z,3.72
2022-09-14T09:40:43.526Z,3.70
2022-09-14T09:43:48.981Z,3.30
2022-09-14T09:46:43.396Z,3.33
2022-09-14T09:49:45.056Z,3.40
2022-09-14T09:52:50.435Z,3.50
2022-09-14T09:55:42.746Z,3.58
2022-09-14T09:59:12.336Z,3.03
2022-09-14T10:02:33.637Z,3.28
2022-09-14T10:05:51.639Z,2.88
2022-09-14T10:09:22.539Z,3.00
2022-09-14T10:12:28.179Z,3.00
2022-09-14T10:15:20.320Z,3.13
2022-09-14T10:21:27.411Z,3.67
2022-09-14T10:24:29.371Z,3.53
2022-09-14T10:27:37.125Z,3.75
2022-09-14T10:30:35.982Z,3.50
2022-09-14T10:33:23.793Z,3.42
2022-09-14T10:36:25.629Z,3.80
2022-09-14T10:39:22.999Z,3.28
2022-09-14T10:42:35.620Z,3.45
2022-09-14T10:45:30.103Z,3.33
2022-09-14T10:48:47.111Z,3.10
2022-09-14T10:52:09.275Z,3.08
2022-09-14T10:55:24.065Z,2.97
2022-09-14T10:58:30.567Z,3.40
2022-09-14T11:01:30.572Z,3.00
2022-09-14T11:04:31.776Z,3.38
2022-09-14T11:07:23.235Z,3.28
2022-09-14T11:10:16.832Z,3.95
2022-09-14T11:13:17.478Z,3.53
2022-09-14T11:16:11.620Z,3.10
2022-09-14T11:19:03.367Z,2.78
2022-09-14T11:21:51.577Z,2.70
2022-09-14T11:24:41.318Z,2.30
2022-09-14T11:27:30.845Z,2.80
2022-09-14T11:30:20.480Z,2.63
2022-09-14T11:33:13.024Z,2.50
2022-09-14T11:36:04.525Z,3.00
2022-09-14T11:38:55.322Z,2.75
2022-09-14T11:41:55.426Z,3.30
2022-09-14T11:45:04.932Z,2.92
2022-09-14T11:51:34.139Z,3.30
2022-09-14T11:54:23.940Z,3.50
2022-09-14T11:57:16.731Z,3.67
2022-09-14T12:00:07.619Z,2.63
2022-09-14T12:03:03.147Z,3.35
2022-09-14T12:06:00.235Z,2.50
2022-09-14T12:09:21.309Z,2.67
2022-09-14T12:12:36.671Z,2.70
2022-09-14T12:15:44.101Z,2.80
2022-09-14T12:18:37.701Z,2.58
2022-09-14T12:21:27.766Z,2.60
2022-09-14T12:24:18.823Z,2.42
2022-09-14T12:27:16.424Z,2.33
2022-09-14T12:30:04.866Z,2.40
2022-09-14T12:32:52.342Z,2.80
2022-09-14T12:35:47.400Z,2.90
2022-09-14T12:38:44.362Z,3.00
2022-09-14T12:41:50.694Z,3.05
2022-09-14T12:44:41.304Z,2.92
2022-09-14T12:47:50.303Z,3.38
2022-09-14T12:50:39.736Z,3.42
2022-09-14T12:53:30.638Z,2.95
2022-09-14T12:56:21.590Z,3.05
2022-09-14T12:59:11.539Z,3.50
2022-09-14T13:02:05.182Z,2.85
2022-09-14T13:04:54.306Z,2.92
2022-09-14T13:07:41.949Z,2.88
2022-09-14T13:10:31.594Z,3.20
2022-09-14T13:13:19.671Z,3.30
2022-09-14T13:16:08.412Z,3.35
2022-09-14T13:19:03.227Z,3.13
2022-09-14T13:21:51.632Z,3.10
2022-09-14T13:24:44.603Z,3.50
2022-09-14T13:27:33.798Z,3.38
2022-09-14T13:30:22.434Z,4.00
2022-09-14T13:33:15.964Z,3.72
2022-09-14T13:36:05.369Z,3.70
2022-09-14T13:38:53.657Z,3.80
2022-09-14T13:41:44.327Z,4.35
2022-09-14T13:44:35.327Z,4.15
2022-09-14T13:47:26.385Z,4.22
2022-09-14T13:50:15.151Z,4.43
2022-09-14T13:53:07.170Z,5.22
2022-09-14T13:55:55.235Z,5.13
2022-09-14T13:58:43.635Z,5.05
2022-09-14T14:01:34.181Z,4.68
2022-09-14T14:04:28.949Z,4.57
2022-09-14T14:07:19.445Z,4.43
2022-09-14T14:10:09.086Z,4.68
2022-09-14T14:13:06.862Z,4.55
2022-09-14T14:16:04.875Z,4.10
2022-09-14T14:19:24.405Z,3.55
2022-09-14T14:22:39.139Z,3.47
2022-09-14T14:25:46.265Z,3.80
2022-09-14T14:28:44.341Z,4.05
2022-09-14T14:35:36.581Z,5.03
2022-09-14T14:38:40.155Z,4.45
2022-09-14T14:41:45.941Z,4.80
2022-09-14T14:44:36.335Z,4.68
2022-09-14T14:47:30.821Z,5.63
2022-09-14T14:50:21.082Z,5.22
2022-09-14T14:56:56.450Z,5.15
2022-09-14T14:59:51.627Z,5.07
2022-09-14T15:03:02.558Z,5.43
2022-09-14T15:06:23.621Z,4.93
2022-09-14T15:09:35.770Z,5.95
2022-09-14T15:12:26.632Z,5.90
2022-09-14T15:15:26.572Z,6.30
2022-09-14T15:18:14.036Z,7.63
2022-09-14T15:21:13.461Z,6.70
2022-09-14T15:24:10.900Z,7.18
2022-09-14T15:27:07.730Z,7.13
2022-09-14T15:30:04.634Z,8.55
2022-09-14T15:33:11.704Z,8.70
2022-09-14T15:36:19.337Z,9.00
2022-09-14T15:39:20.610Z,8.75
2022-09-14T15:42:38.366Z,8.80
2022-09-14T15:46:05.479Z,9.40
2022-09-14T15:49:22.466Z,8.95
2022-09-14T15:52:14.769Z,9.23
2022-09-14T15:55:10.954Z,9.65
2022-09-14T15:58:05.805Z,11.38
2022-09-14T16:01:02.117Z,9.73
2022-09-14T16:04:11.723Z,10.02
2022-09-14T16:10:38.708Z,10.57
2022-09-14T16:13:34.193Z,9.32
2022-09-14T16:17:02.723Z,10.85
2022-09-14T16:27:46.635Z,9.55
2022-09-14T16:30:44.452Z,10.00
2022-09-14T16:33:37.477Z,9.35
2022-09-14T16:36:31.525Z,9.23
2022-09-14T16:39:25.684Z,8.23
2022-09-14T16:50:11.084Z,7.63
2022-09-14T16:56:38.974Z,8.50
2022-09-14T16:59:26.953Z,7.80
2022-09-14T17:02:14.688Z,8.70
2022-09-14T17:05:06.929Z,7.65
2022-09-14T17:07:55.683Z,8.70
2022-09-14T17:10:52.474Z,8.73
2022-09-14T17:13:40.834Z,8.40
2022-09-14T17:16:31.347Z,8.88
2022-09-14T17:19:21.392Z,9.07
2022-09-14T17:22:16.816Z,8.95
2022-09-14T17:25:08.461Z,8.38
2022-09-14T17:28:23.359Z,9.10
2022-09-14T17:31:13.818Z,9.55
2022-09-14T17:34:17.467Z,9.90
2022-09-14T17:37:05.526Z,8.05
2022-09-14T17:39:58.077Z,8.38
2022-09-14T17:42:50.397Z,9.10
2022-09-14T17:45:41.022Z,8.70
2022-09-14T17:59:16.327Z,10.23
2022-09-14T18:02:04.001Z,10.65
2022-09-14T18:04:53.843Z,10.70
2022-09-14T18:07:50.471Z,10.05
2022-09-14T18:10:42.512Z,10.90
2022-09-14T18:13:46.567Z,11.60
2022-09-14T18:16:34.958Z,11.23
2022-09-14T18:19:22.971Z,10.90
2022-09-14T18:22:46.974Z,12.10
2022-09-14T18:25:44.899Z,12.73
2022-09-14T18:29:12.356Z,14.52
2022-09-14T18:32:02.818Z,14.52
2022-09-14T18:34:54.405Z,14.55
2022-09-14T18:37:42.883Z,15.20
2022-09-14T18:40:34.871Z,14.35
2022-09-14T18:43:27.018Z,13.75
2022-09-14T18:46:28.006Z,14.82
2022-09-14T18:49:21.236Z,15.00
2022-09-14T18:52:30.074Z,14.15
2022-09-14T18:55:20.655Z,13.57
2022-09-14T18:58:27.604Z,13.05
2022-09-14T19:05:11.971Z,14.00
2022-09-14T19:08:06.641Z,12.73
2022-09-14T19:11:13.533Z,13.05
2022-09-14T19:14:13.707Z,13.07
2022-09-14T19:17:32.771Z,12.85
2022-09-14T19:21:02.114Z,13.90
2022-09-14T19:23:55.706Z,12.88
2022-09-14T19:27:03.559Z,13.45
2022-09-14T19:29:53.460Z,15.18
2022-09-14T19:32:41.312Z,15.30
2022-09-14T19:35:41.268Z,17.25
2022-09-14T19:38:30.763Z,15.55
2022-09-14T19:41:24.651Z,16.05
2022-09-14T19:44:12.493Z,16.27
2022-09-14T19:47:00.330Z,15.63
2022-09-14T19:49:51.028Z,15.57
2022-09-14T19:52:40.125Z,15.93
2022-09-14T19:55:27.982Z,15.10
2022-09-14T19:58:19.143Z,15.27
2022-09-14T20:01:07.199Z,16.17
2022-09-14T20:03:54.960Z,16.55
2022-09-14T20:06:44.999Z,16.95
2022-09-14T20:09:33.490Z,17.13
2022-09-14T20:12:20.793Z,16.75
2022-09-14T20:15:11.334Z,16.10
2022-09-14T20:17:58.932Z,17.58
2022-09-14T20:20:46.838Z,16.02
2022-09-14T20:23:34.723Z,15.00
2022-09-14T20:26:24.544Z,15.38
2022-09-14T20:29:12.515Z,16.48
2022-09-14T20:32:00.443Z,15.85
2022-09-14T20:34:48.629Z,15.15
2022-09-14T20:37:36.016Z,16.75
2022-09-14T20:40:23.636Z,16.85
2022-09-14T20:43:15.959Z,17.00
2022-09-14T20:46:04.313Z,14.70
2022-09-14T20:48:51.860Z,15.77
2022-09-14T20:51:40.019Z,15.63
2022-09-14T20:54:27.282Z,15.73
2022-09-14T20:57:14.775Z,15.23
2022-09-14T21:00:04.055Z,16.45
2022-09-14T21:02:56.862Z,15.48
2022-09-14T21:05:44.915Z,15.07
2022-09-14T21:08:33.411Z,15.77
2022-09-14T21:11:22.459Z,15.27
2022-09-14T21:14:10.823Z,14.57
2022-09-14T21:17:03.305Z,13.95
2022-09-14T21:19:51.049Z,13.45
2022-09-14T21:22:39.444Z,13.60
2022-09-14T21:25:26.936Z,13.15
2022-09-14T21:28:14.530Z,12.15
2022-09-14T21:31:06.698Z,12.95
2022-09-14T21:33:58.223Z,12.80
2022-09-14T21:36:47.907Z,13.10
2022-09-14T21:39:38.166Z,12.13
2022-09-14T21:42:25.637Z,13.38
2022-09-14T21:45:13.889Z,12.82
2022-09-14T21:48:03.404Z,13.93
2022-09-14T21:51:01.694Z,12.85
2022-09-14T21:57:37.335Z,12.05
2022-09-14T22:00:40.249Z,11.90
2022-09-14T22:03:29.637Z,12.57
2022-09-14T22:06:20.095Z,13.02
2022-09-14T22:09:08.004Z,13.30
2022-09-14T22:11:59.791Z,12.57
2022-09-14T22:14:48.543Z,12.60
2022-09-14T22:17:38.468Z,14.23
2022-09-14T22:20:27.621Z,14.30
2022-09-14T22:23:16.319Z,16.52
2022-09-14T22:26:07.735Z,15.02
2022-09-14T22:28:55.590Z,15.15
2022-09-14T22:31:45.877Z,17.63
2022-09-14T22:34:35.895Z,15.25
2022-09-14T22:37:26.878Z,15.23
2022-09-14T22:40:17.408Z,14.73
2022-09-14T22:43:07.887Z,13.93
2022-09-14T22:45:55.631Z,13.68
2022-09-14T22:48:50.609Z,14.88
2022-09-14T22:51:38.710Z,15.13
2022-09-14T22:54:42.547Z,15.98
2022-09-14T22:57:40.113Z,15.10
2022-09-14T23:00:29.011Z,14.45
2022-09-14T23:03:18.019Z,15.93
2022-09-14T23:06:06.103Z,14.88
2022-09-14T23:08:53.167Z,15.93
2022-09-14T23:11:44.848Z,14.88
2022-09-14T23:14:38.271Z,16.08
2022-09-14T23:17:26.421Z,16.15
2022-09-14T23:20:13.735Z,16.75
2022-09-14T23:23:01.196Z,17.95
2022-09-14T23:25:48.653Z,16.58
2022-09-14T23:28:37.720Z,17.90
2022-09-14T23:31:26.949Z,17.73
2022-09-14T23:34:14.979Z,17.77
2022-09-14T23:37:02.372Z,15.80
2022-09-14T23:39:50.161Z,16.48
2022-09-14T23:42:37.890Z,15.52
2022-09-14T23:45:25.272Z,16.40
2022-09-14T23:48:15.099Z,17.30
2022-09-14T23:51:04.032Z,15.75
2022-09-14T23:53:51.591Z,17.98
2022-09-14T23:56:40.604Z,16.55
2022-09-14T23:59:28.028Z,19.02
